Time;durP1;ratioP1;P1;durP2;ratioP2;P2;SDS_P1;SDS_P2;PMS_P1;PMS_P2;Temp;Humidity;BMP_temperature;BMP_pressure;BME280_temperature;BME280_humidity;BME280_pressure;Samples;Min_cycle;Max_cycle;Signal;HPM_P1;HPM_P2
2021/05/18 00:00:56;;;;;;;2.08;0.80;;;;;;;23.19;34.95;100355.06;143733;607;49021;-83
2021/05/18 00:03:23;;;;;;;3.10;0.90;;;;;;;23.26;34.80;100348.19;143739;617;46008;-86
2021/05/18 00:05:57;;;;;;;4.55;1.00;;;;;;;23.34;34.90;100354.72;143738;571;46024;-81
2021/05/18 00:08:27;;;;;;;2.50;0.70;;;;;;;23.41;34.39;100353.19;143740;636;46021;-82
2021/05/18 00:13:54;;;;;;;3.53;0.90;;;;;;;23.54;34.22;100363.66;143736;610;47009;-77
2021/05/18 00:16:21;;;;;;;1.92;0.70;;;;;;;23.57;34.42;100352.69;143730;641;46020;-77
2021/05/18 00:18:49;;;;;;;2.67;1.00;;;;;;;23.58;34.11;100349.88;143737;598;46020;-78
2021/05/18 00:21:16;;;;;;;2.05;0.90;;;;;;;23.60;34.14;100353.25;143737;639;46030;-89
2021/05/18 00:23:43;;;;;;;3.80;1.00;;;;;;;23.64;34.25;100353.84;143738;630;46020;-85
2021/05/18 00:26:12;;;;;;;3.42;0.70;;;;;;;23.68;34.40;100351.75;143737;636;47006;-85
2021/05/18 00:28:40;;;;;;;2.58;0.70;;;;;;;23.68;34.25;100346.38;143738;634;47008;-83
2021/05/18 00:31:07;;;;;;;3.20;0.90;;;;;;;23.63;34.36;100350.31;143733;581;47019;-77
2021/05/18 00:33:35;;;;;;;3.12;1.00;;;;;;;23.60;33.96;100349.72;143738;577;46020;-84
2021/05/18 00:36:04;;;;;;;4.15;1.00;;;;;;;23.61;33.88;100351.44;143735;812;46008;-83
2021/05/18 00:38:31;;;;;;;3.33;0.77;;;;;;;23.57;34.42;100352.69;143737;645;47006;-93
2021/05/18 00:40:58;;;;;;;4.22;0.90;;;;;;;23.57;34.30;100356.22;143730;602;46904;-93
2021/05/18 00:43:25;;;;;;;3.03;1.20;;;;;;;23.59;33.94;100361.44;143736;621;46020;-84
2021/05/18 00:45:52;;;;;;;4.32;0.88;;;;;;;23.54;34.23;100358.31;143737;564;46013;-83
2021/05/18 00:48:22;;;;;;;4.95;1.00;;;;;;;23.53;34.29;100356.63;143739;574;47008;-84
2021/05/18 00:51:02;;;;;;;2.33;0.88;;;;;;;23.54;34.26;100350.25;143736;620;47020;-80
2021/05/18 00:53:29;;;;;;;2.83;0.82;;;;;;;23.52;34.45;100350.41;143739;619;47008;-80
2021/05/18 00:56:19;;;;;;;2.37;0.90;;;;;;;23.53;34.66;100345.91;143737;600;46018;-81
2021/05/18 00:58:47;;;;;;;3.37;0.90;;;;;;;23.52;34.39;100349.56;143737;592;47006;-81
2021/05/18 01:01:20;;;;;;;3.72;1.00;;;;;;;23.50;34.32;100352.37;143732;586;46016;-80
2021/05/18 01:03:51;;;;;;;4.35;1.02;;;;;;;23.51;34.06;100347.88;143738;638;47008;-80
2021/05/18 01:06:25;;;;;;;2.40;0.93;;;;;;;23.48;34.21;100339.13;143732;630;47009;-81
2021/05/18 01:08:59;;;;;;;4.12;0.77;;;;;;;23.48;33.97;100344.50;143738;626;46008;-84
2021/05/18 01:11:31;;;;;;;1.90;0.80;;;;;;;23.50;33.76;100347.03;143736;583;46030;-85
2021/05/18 01:14:02;;;;;;;5.00;1.23;;;;;;;23.45;34.22;100325.97;143737;614;47008;-83
2021/05/18 01:16:32;;;;;;;2.30;0.80;;;;;;;23.51;34.34;100334.47;143735;627;47008;-86
2021/05/18 01:19:00;;;;;;;2.42;0.70;;;;;;;23.55;34.33;100341.25;143736;577;47022;-85
2021/05/18 01:21:27;;;;;;;3.53;0.90;;;;;;;23.57;34.14;100342.81;143737;575;46012;-85
2021/05/18 01:23:55;;;;;;;3.58;0.90;;;;;;;23.58;34.38;100344.50;143737;627;46020;-86
2021/05/18 01:26:23;;;;;;;2.70;0.88;;;;;;;23.58;34.25;100338.28;143738;620;46016;-84
2021/05/18 01:28:51;;;;;;;2.87;0.90;;;;;;;23.62;34.30;100342.37;143738;588;47006;-91
2021/05/18 01:31:24;;;;;;;3.45;1.02;;;;;;;23.59;34.43;100340.84;143729;646;47018;-86
2021/05/18 01:33:53;;;;;;;2.53;1.08;;;;;;;23.59;34.11;100338.19;143737;688;46913;-81
2021/05/18 01:36:22;;;;;;;2.47;0.80;;;;;;;23.55;34.22;100338.56;143731;624;47008;-93
2021/05/18 01:39:09;;;;;;;2.17;0.90;;;;;;;23.57;34.37;100345.50;143736;563;47010;-92
2021/05/18 01:44:21;;;;;;;4.50;1.00;;;;;;;23.55;34.51;100342.13;143738;578;46021;-90
2021/05/18 01:46:48;;;;;;;4.78;1.12;;;;;;;23.56;34.50;100341.09;143735;615;47008;-88
2021/05/18 01:49:16;;;;;;;3.10;0.80;;;;;;;23.58;34.20;100338.28;143738;594;47006;-87
2021/05/18 01:51:52;;;;;;;4.07;1.23;;;;;;;23.57;34.83;100342.81;143740;595;46021;-88
2021/05/18 01:54:28;;;;;;;4.30;1.00;;;;;;;23.60;34.76;100347.06;143738;616;47008;-86
2021/05/18 01:57:17;;;;;;;3.03;0.90;;;;;;;23.62;34.36;100353.97;143732;565;47008;-87
2021/05/18 01:59:46;;;;;;;2.70;0.90;;;;;;;23.60;34.40;100349.72;143737;720;47008;-83
2021/05/18 02:02:14;;;;;;;2.72;0.90;;;;;;;23.56;34.53;100351.00;143736;646;46010;-87
2021/05/18 02:04:56;;;;;;;2.30;0.90;;;;;;;23.48;34.59;100349.84;143735;619;46020;-78
2021/05/18 02:07:36;;;;;;;3.17;1.10;;;;;;;23.42;34.70;100358.41;143735;578;47006;-86
2021/05/18 02:10:11;;;;;;;2.55;0.90;;;;;;;23.37;34.99;100360.62;143735;577;46018;-85
2021/05/18 02:12:38;;;;;;;3.70;1.17;;;;;;;23.30;34.80;100362.16;143731;588;46905;-90
2021/05/18 02:15:25;;;;;;;2.75;1.10;;;;;;;23.28;35.04;100353.44;143737;600;47008;-91
2021/05/18 02:26:53;;;;;;;2.08;0.80;;;;;;;23.26;35.16;100360.75;143734;591;47011;-81
2021/05/18 02:29:21;;;;;;;5.82;1.08;;;;;;;23.24;35.14;100362.72;143727;602;47008;-81
2021/05/18 02:31:49;;;;;;;6.70;0.95;;;;;;;23.25;35.15;100369.75;143735;623;47008;-81
2021/05/18 02:34:16;;;;;;;1.65;0.85;;;;;;;23.25;34.89;100369.75;143731;577;46016;-80
2021/05/18 02:36:43;;;;;;;4.18;0.90;;;;;;;23.20;35.32;100356.75;143736;597;46008;-83
2021/05/18 02:39:11;;;;;;;2.53;0.90;;;;;;;23.23;34.94;100372.56;143735;615;47008;-82
2021/05/18 02:41:38;;;;;;;2.75;0.90;;;;;;;23.21;35.02;100366.50;143735;570;46020;-78
2021/05/18 02:44:14;;;;;;;3.45;0.80;;;;;;;23.23;35.03;100374.41;143735;628;46018;-77
2021/05/18 02:49:27;;;;;;;3.70;0.93;;;;;;;23.23;35.07;100371.72;143730;569;46018;-78
2021/05/18 02:51:54;;;;;;;2.40;1.00;;;;;;;23.23;35.21;100382.44;143737;592;47006;-78
2021/05/18 02:54:26;;;;;;;4.03;0.80;;;;;;;23.20;35.75;100374.69;143734;618;47020;-77
2021/05/18 02:56:59;;;;;;;3.65;1.00;;;;;;;23.17;35.97;100380.28;143737;589;47008;-78
2021/05/18 02:59:26;;;;;;;5.57;0.90;;;;;;;23.14;35.45;100379.56;143736;612;46021;-84
2021/05/18 03:01:58;;;;;;;4.40;0.90;;;;;;;23.14;35.71;100379.56;143737;645;46022;-78
2021/05/18 03:04:27;;;;;;;4.20;0.98;;;;;;;23.13;35.35;100374.34;143736;632;46020;-78
2021/05/18 03:06:54;;;;;;;2.83;0.80;;;;;;;23.13;35.41;100377.88;143735;576;46021;-80
2021/05/18 03:09:23;;;;;;;5.00;1.10;;;;;;;23.10;35.35;100382.59;143737;563;46008;-86
2021/05/18 03:11:53;;;;;;;5.12;1.23;;;;;;;23.07;35.74;100383.72;143735;584;47006;-90
2021/05/18 03:14:21;;;;;;;4.53;1.20;;;;;;;23.06;36.00;100378.50;143732;577;47010;-92
2021/05/18 03:16:49;;;;;;;3.60;1.05;;;;;;;23.12;35.95;100391.38;143735;576;47008;-92
2021/05/18 03:19:17;;;;;;;4.72;1.20;;;;;;;23.12;35.56;100394.91;143738;570;46009;-87
2021/05/18 03:21:45;;;;;;;6.32;1.10;;;;;;;23.11;35.58;100395.88;143738;636;46010;-86
2021/05/18 03:24:13;;;;;;;6.70;1.20;;;;;;;23.09;35.70;100397.00;143736;619;46010;-84
2021/05/18 03:26:48;;;;;;;5.28;1.10;;;;;;;23.03;35.66;100392.97;143736;586;46008;-85
2021/05/18 03:29:23;;;;;;;5.30;1.12;;;;;;;23.01;36.40;100397.63;143736;609;47008;-81
2021/05/18 03:34:37;;;;;;;3.62;1.10;;;;;;;22.87;36.24;100384.56;143737;596;45907;-91
2021/05/18 03:37:53;;;;;;;2.95;1.20;;;;;;;22.95;36.22;100400.81;143735;581;47008;-87
2021/05/18 03:40:22;;;;;;;3.62;1.08;;;;;;;22.94;36.61;100415.22;143729;582;46012;-87
2021/05/18 03:43:09;;;;;;;4.62;1.00;;;;;;;22.89;36.42;100420.94;143736;576;46008;-86
2021/05/18 03:45:39;;;;;;;3.20;1.12;;;;;;;22.86;36.46;100428.41;143734;617;47018;-86
2021/05/18 03:53:54;;;;;;;3.92;1.10;;;;;;;22.72;36.81;100432.22;143737;570;46008;-80
2021/05/18 04:02:41;;;;;;;4.03;1.35;;;;;;;22.69;37.02;100432.47;143737;587;46021;-86
2021/05/18 04:04:49;;;;;;;6.57;1.05;;;;;;;22.67;37.33;100437.13;143732;602;46020;-89
2021/05/18 04:13:15;;;;;;;3.45;1.12;;;;;;;22.67;37.96;100429.09;143736;597;47018;-90
2021/05/18 04:18:29;;;;;;;3.60;0.93;;;;;;;22.79;37.98;100428.91;143730;572;47010;-88
2021/05/18 04:21:04;;;;;;;3.60;1.10;;;;;;;22.80;38.19;100446.66;143730;583;47009;-87
2021/05/18 04:48:10;;;;;;;2.55;0.93;;;;;;;23.44;37.76;100450.22;143732;604;47008;-84
2021/05/18 04:51:55;;;;;;;2.55;1.10;;;;;;;23.86;38.02;100459.16;143733;626;47010;-85
2021/05/18 05:00:00;;;;;;;3.72;1.05;;;;;;;24.24;37.44;100463.81;143732;579;47008;-84
2021/05/18 05:02:48;;;;;;;4.37;1.30;;;;;;;24.28;37.42;100465.22;143728;577;46016;-86
2021/05/18 05:08:16;;;;;;;3.05;1.10;;;;;;;24.54;37.19;100461.19;143730;598;46018;-83
2021/05/18 05:16:15;;;;;;;4.72;1.00;;;;;;;25.01;36.40;100466.69;143732;566;47008;-84
2021/05/18 05:18:42;;;;;;;3.03;1.08;;;;;;;25.00;36.60;100463.19;143730;592;47006;-83
2021/05/18 05:21:10;;;;;;;6.65;1.20;;;;;;;25.07;36.34;100466.16;143731;785;47008;-86
2021/05/18 05:26:17;;;;;;;3.25;0.93;;;;;;;25.30;36.45;100468.50;143731;649;47010;-88
2021/05/18 05:28:44;;;;;;;5.22;1.08;;;;;;;25.34;35.68;100467.25;143730;567;46012;-91
2021/05/18 05:31:11;;;;;;;6.43;1.80;;;;;;;25.39;35.58;100462.28;143731;596;49006;-90
2021/05/18 05:33:39;;;;;;;7.05;1.55;;;;;;;25.42;36.12;100470.06;143727;588;46016;-88
2021/05/18 05:36:06;;;;;;;6.15;1.23;;;;;;;25.50;36.16;100483.59;143730;637;46008;-79
2021/05/18 05:38:37;;;;;;;6.60;1.40;;;;;;;25.63;36.06;100493.19;143730;726;46020;-79
2021/05/18 05:41:05;;;;;;;5.97;1.35;;;;;;;25.68;35.88;100493.59;143729;711;46020;-86
2021/05/18 05:43:32;;;;;;;4.85;1.17;;;;;;;25.77;35.61;100490.03;143729;590;47019;-89
2021/05/18 05:46:00;;;;;;;9.68;1.20;;;;;;;25.85;35.78;100500.91;143732;620;46008;-88
2021/05/18 05:48:28;;;;;;;6.43;1.12;;;;;;;25.94;35.43;100501.84;143731;564;47008;-90
2021/05/18 05:50:55;;;;;;;2.45;1.02;;;;;;;26.03;35.35;100500.16;143733;691;47006;-84
2021/05/18 05:53:22;;;;;;;4.30;1.10;;;;;;;26.02;34.86;100503.84;143733;677;46010;-83
2021/05/18 05:55:49;;;;;;;4.82;1.20;;;;;;;26.09;35.33;100502.22;143731;587;47011;-81
2021/05/18 05:58:16;;;;;;;5.12;1.20;;;;;;;26.11;35.19;100492.19;143734;569;46006;-82
2021/05/18 06:00:43;;;;;;;6.85;1.20;;;;;;;26.17;34.95;100494.25;143731;627;46020;-83
2021/05/18 06:03:11;;;;;;;5.72;1.20;;;;;;;26.24;34.52;100499.06;143732;607;46008;-80
2021/05/18 06:05:38;;;;;;;5.37;1.10;;;;;;;26.28;34.79;100497.75;143733;651;46008;-80
2021/05/18 06:08:05;;;;;;;3.55;1.30;;;;;;;26.33;34.74;100496.31;143729;590;47010;-86
2021/05/18 06:10:36;;;;;;;2.35;1.10;;;;;;;26.37;34.24;100496.88;143731;563;46022;-80
2021/05/18 06:13:28;;;;;;;5.12;1.15;;;;;;;26.27;34.74;100485.28;143729;594;46016;-79
2021/05/18 06:46:52;;;;;;;4.70;1.20;;;;;;;27.22;33.03;100515.34;143733;581;47010;-78
2021/05/18 06:49:20;;;;;;;5.15;1.10;;;;;;;27.34;32.76;100516.81;143730;605;47008;-79
2021/05/18 06:51:47;;;;;;;2.17;0.85;;;;;;;27.36;33.14;100514.81;143729;591;46020;-80
2021/05/18 06:54:15;;;;;;;4.37;1.08;;;;;;;27.41;32.92;100521.59;143730;596;47006;-80
2021/05/18 06:56:44;;;;;;;4.28;1.00;;;;;;;27.42;32.93;100518.75;143728;580;47020;-79
2021/05/18 07:02:00;;;;;;;3.58;1.00;;;;;;;27.52;32.36;100513.25;143732;626;46008;-80
2021/05/18 07:04:28;;;;;;;4.30;1.00;;;;;;;27.53;32.05;100510.41;143734;578;46008;-80
2021/05/18 07:07:15;;;;;;;11.20;1.48;;;;;;;27.58;31.63;100504.50;143728;578;46016;-80
2021/05/18 07:09:42;;;;;;;2.62;0.90;;;;;;;27.65;31.91;100502.03;143730;579;46020;-80
2021/05/18 07:12:09;;;;;;;3.70;0.90;;;;;;;27.73;31.20;100503.94;143730;611;46016;-81
2021/05/18 07:14:37;;;;;;;4.55;1.33;;;;;;;27.76;29.82;100503.59;143732;682;47006;-80
2021/05/18 07:17:04;;;;;;;2.28;0.80;;;;;;;27.74;29.31;100501.06;143730;588;46010;-80
2021/05/18 07:19:31;;;;;;;7.00;1.08;;;;;;;27.64;29.40;100494.94;143731;654;46010;-81
2021/05/18 07:21:58;;;;;;;6.30;1.15;;;;;;;27.74;29.68;100498.37;143731;606;46008;-80
2021/05/18 07:24:29;;;;;;;2.97;0.80;;;;;;;27.77;28.87;100498.03;143730;592;46025;-80
2021/05/18 07:26:58;;;;;;;5.47;1.15;;;;;;;27.83;29.31;100502.81;143727;587;47019;-80
2021/05/18 07:29:25;;;;;;;5.78;1.08;;;;;;;27.89;29.38;100497.78;143731;712;46020;-80
2021/05/18 07:31:52;;;;;;;4.45;1.08;;;;;;;27.90;29.19;100494.94;143732;571;46008;-80
2021/05/18 07:34:19;;;;;;;5.47;1.10;;;;;;;27.94;29.09;100500.81;143731;644;46023;-81
2021/05/18 07:36:46;;;;;;;5.03;0.85;;;;;;;28.03;28.65;100500.75;143730;603;47008;-81
2021/05/18 07:39:14;;;;;;;4.65;1.10;;;;;;;28.08;28.80;100500.25;143733;587;47008;-80
2021/05/18 07:41:41;;;;;;;3.72;0.98;;;;;;;28.08;29.12;100496.72;143728;565;46019;-81
2021/05/18 07:44:08;;;;;;;4.97;0.90;;;;;;;28.14;28.42;100496.06;143732;571;47006;-81
2021/05/18 07:46:39;;;;;;;2.70;0.90;;;;;;;28.25;28.27;100494.91;143733;569;46010;-80
2021/05/18 07:49:14;;;;;;;3.65;0.88;;;;;;;28.33;27.99;100493.06;143728;569;46939;-81
2021/05/18 07:59:14;;;;;;;3.95;1.00;;;;;;;28.39;27.45;100497.00;143729;626;47008;-82
2021/05/18 08:06:06;;;;;;;4.40;1.00;;;;;;;28.68;25.73;100484.94;143731;567;49008;-81
2021/05/18 08:08:34;;;;;;;5.05;0.90;;;;;;;28.62;26.15;100501.75;143732;700;46010;-76
2021/05/18 08:11:02;;;;;;;8.00;0.90;;;;;;;28.70;26.00;100504.50;143730;617;47010;-76
2021/05/18 08:13:30;;;;;;;6.10;1.02;;;;;;;28.73;26.51;100500.63;143727;579;46018;-89
2021/05/18 08:22:15;;;;;;;3.28;0.82;;;;;;;29.07;26.02;100518.56;143729;588;46020;-81
2021/05/18 09:28:47;;;;;;;4.10;1.10;;;;;;;30.05;25.78;100509.44;143730;606;46021;-83
2021/05/18 09:48:39;;;;;;;4.75;1.00;;;;;;;30.95;23.89;100501.81;143733;585;46010;-80
2021/05/18 10:36:04;;;;;;;3.03;0.68;;;;;;;32.07;19.76;100457.63;143730;663;46579;-81
2021/05/18 10:38:45;;;;;;;3.95;0.80;;;;;;;32.00;19.78;100449.41;143734;604;46010;-82
2021/05/18 10:41:22;;;;;;;6.60;1.17;;;;;;;32.06;20.00;100455.94;143731;585;46021;-82
2021/05/18 10:44:01;;;;;;;5.25;1.10;;;;;;;32.16;19.36;100455.66;143732;569;46020;-81
2021/05/18 10:46:34;;;;;;;7.28;1.10;;;;;;;32.19;18.37;100444.41;143732;567;46016;-82
2021/05/18 10:49:10;;;;;;;2.35;0.80;;;;;;;32.25;17.26;100448.22;143730;729;46020;-81
2021/05/18 10:51:54;;;;;;;4.22;0.80;;;;;;;32.22;17.28;100452.19;143733;577;47010;-82
2021/05/18 10:54:41;;;;;;;3.83;0.75;;;;;;;32.36;16.65;100461.31;143735;583;47012;-83
2021/05/18 10:57:19;;;;;;;5.37;0.80;;;;;;;32.34;16.87;100469.69;143731;621;47012;-81
2021/05/18 10:59:58;;;;;;;4.87;0.80;;;;;;;32.36;16.89;100464.03;143732;613;47012;-83
2021/05/18 11:02:34;;;;;;;5.18;0.80;;;;;;;32.37;16.74;100471.16;143730;600;46019;-83
2021/05/18 11:05:10;;;;;;;2.50;0.90;;;;;;;32.36;17.00;100474.91;143733;655;47010;-83
2021/05/18 11:07:43;;;;;;;2.15;0.62;;;;;;;32.31;16.92;100480.06;143732;569;47012;-82
2021/05/18 11:10:14;;;;;;;4.47;0.80;;;;;;;32.29;17.16;100476.69;143732;625;46021;-83
2021/05/18 11:12:44;;;;;;;4.97;0.85;;;;;;;32.42;16.26;100473.28;143734;609;46010;-83
2021/05/18 11:15:17;;;;;;;2.85;0.80;;;;;;;32.28;15.18;100459.56;143734;573;47008;-84
2021/05/18 11:17:49;;;;;;;;;;;;;;;32.02;16.50;100469.03;143737;973;46013;-83
2021/05/18 11:20:48;;;;;;;6.60;1.00;;;;;;;32.06;16.16;100478.50;143735;590;46020;-81
2021/05/18 11:23:23;;;;;;;3.47;0.80;;;;;;;32.08;16.33;100466.59;143729;608;47012;-82
2021/05/18 11:26:12;;;;;;;2.20;0.75;;;;;;;32.07;16.35;100452.19;143736;565;46008;-81
2021/05/18 11:28:51;;;;;;;3.25;1.00;;;;;;;32.17;16.48;100457.34;143731;640;46016;-83
2021/05/18 11:31:26;;;;;;;5.15;1.15;;;;;;;32.14;16.70;100455.81;143733;610;47010;-83
2021/05/18 11:34:03;;;;;;;2.97;0.93;;;;;;;32.24;16.91;100450.13;143733;608;46010;-83
2021/05/18 11:36:38;;;;;;;2.58;0.70;;;;;;;32.31;16.88;100455.62;143736;566;46008;-82
2021/05/18 11:39:16;;;;;;;4.62;0.90;;;;;;;32.38;16.96;100449.25;143732;656;46030;-82
2021/05/18 11:41:46;;;;;;;3.28;0.90;;;;;;;32.46;16.70;100445.53;143733;579;46020;-82
2021/05/18 11:44:14;;;;;;;4.35;0.90;;;;;;;32.50;16.18;100446.84;143732;589;46016;-83
2021/05/18 11:46:51;;;;;;;2.60;0.77;;;;;;;32.52;16.75;100439.34;143733;564;47006;-82
2021/05/18 11:49:19;;;;;;;4.50;0.80;;;;;;;32.55;16.35;100427.25;143730;569;47021;-83
2021/05/18 11:51:55;;;;;;;5.15;0.90;;;;;;;32.36;16.50;100426.84;143731;579;47010;-81
2021/05/18 11:54:27;;;;;;;3.97;0.80;;;;;;;32.29;16.52;100434.09;143731;611;46018;-82
2021/05/18 11:56:55;;;;;;;3.92;1.12;;;;;;;32.36;17.15;100434.16;143735;702;46010;-81
2021/05/18 11:59:24;;;;;;;5.07;0.85;;;;;;;32.48;16.92;100437.19;143734;604;46010;-80
2021/05/18 12:02:05;;;;;;;3.17;0.82;;;;;;;32.53;17.28;100430.16;143734;621;47008;-82
2021/05/18 12:04:37;;;;;;;2.58;0.80;;;;;;;32.59;16.97;100438.56;143730;629;47008;-83
2021/05/18 12:07:08;;;;;;;;;;;;;;;32.60;16.72;100435.62;143736;954;46020;-84
2021/05/18 12:09:44;;;;;;;3.45;0.80;;;;;;;32.61;16.55;100441.94;143733;734;46017;-83
2021/05/18 12:12:18;;;;;;;2.72;1.00;;;;;;;32.60;16.92;100441.06;143731;569;46020;-82
2021/05/18 12:14:51;;;;;;;11.70;1.10;;;;;;;32.59;16.08;100441.28;143734;656;47008;-83
2021/05/18 12:17:28;;;;;;;3.90;0.80;;;;;;;32.48;16.17;100435.34;143733;577;46020;-83
2021/05/18 12:19:59;;;;;;;1.87;0.70;;;;;;;32.44;16.20;100436.75;143732;597;46033;-80
2021/05/18 12:22:27;;;;;;;2.10;0.70;;;;;;;32.42;16.61;100417.06;143734;628;46010;-83
2021/05/18 12:24:56;;;;;;;7.55;0.90;;;;;;;32.46;16.74;100418.38;143733;566;46013;-82
2021/05/18 12:27:24;;;;;;;6.20;1.10;;;;;;;32.50;16.49;100426.97;143733;793;47008;-83
2021/05/18 12:29:54;;;;;;;4.10;0.90;;;;;;;32.58;16.79;100420.59;143732;569;47012;-81
2021/05/18 12:32:49;;;;;;;2.83;0.88;;;;;;;32.53;16.62;100388.56;143731;612;47012;-82
2021/05/18 12:35:20;;;;;;;6.05;1.00;;;;;;;32.72;16.59;100428.69;143730;710;47010;-81
2021/05/18 12:37:53;;;;;;;3.62;0.70;;;;;;;32.74;16.65;100412.19;143729;588;47008;-82
2021/05/18 12:40:36;;;;;;;6.03;0.70;;;;;;;32.73;16.61;100400.47;143725;597;47019;-82
2021/05/18 12:43:23;;;;;;;3.05;0.90;;;;;;;32.76;16.94;100412.00;143727;601;47008;-82
2021/05/18 12:46:08;;;;;;;2.72;0.90;;;;;;;32.87;16.83;100406.84;143726;691;46020;-82
2021/05/18 12:48:41;;;;;;;3.60;1.00;;;;;;;32.89;16.80;100423.81;143728;681;47012;-80
2021/05/18 12:51:24;;;;;;;2.85;0.82;;;;;;;32.95;16.80;100416.75;143725;572;47012;-85
2021/05/18 12:54:14;;;;;;;3.17;0.90;;;;;;;32.71;16.87;100402.56;143725;673;47012;-84
2021/05/18 12:56:41;;;;;;;6.28;0.90;;;;;;;32.64;17.22;100412.47;143726;595;47010;-83
2021/05/18 12:59:12;;;;;;;3.25;0.93;;;;;;;32.58;17.67;100409.72;143728;562;46012;-84
2021/05/18 13:01:47;;;;;;;3.28;0.93;;;;;;;32.67;17.78;100409.38;143719;652;47018;-82
2021/05/18 13:04:16;;;;;;;6.47;1.10;;;;;;;32.77;17.27;100398.22;143725;595;46020;-82
2021/05/18 13:06:50;;;;;;;3.80;0.90;;;;;;;32.71;17.41;100407.13;143727;630;46906;-83
2021/05/18 13:09:29;;;;;;;3.00;0.80;;;;;;;32.67;16.88;100403.94;143729;570;46021;-81
2021/05/18 13:12:12;;;;;;;4.53;0.98;;;;;;;32.59;17.01;100395.06;143724;589;47012;-86
2021/05/18 13:15:13;;;;;;;3.08;1.00;;;;;;;32.50;17.17;100416.13;143726;651;46020;-83
2021/05/18 13:17:57;;;;;;;6.05;1.10;;;;;;;32.49;16.80;100418.00;143727;625;46032;-83
2021/05/18 13:20:35;;;;;;;5.10;1.00;;;;;;;32.50;17.12;100422.38;143728;674;46022;-84
2021/05/18 13:23:04;;;;;;;6.30;1.10;;;;;;;32.47;17.24;100413.81;143725;588;47015;-82
2021/05/18 13:28:21;;;;;;;3.53;0.80;;;;;;;32.50;17.55;100411.50;143723;604;46018;-85
2021/05/18 13:30:49;;;;;;;6.57;1.00;;;;;;;32.54;17.39;100407.38;143729;629;46021;-83
2021/05/18 13:33:16;;;;;;;4.00;1.00;;;;;;;32.53;17.66;100408.44;143726;611;46016;-82
2021/05/18 13:35:44;;;;;;;6.28;0.90;;;;;;;32.53;17.45;100413.00;143724;662;46020;-82
2021/05/18 13:38:11;;;;;;;3.58;0.82;;;;;;;32.62;17.64;100409.13;143729;636;46011;-82
2021/05/18 13:40:38;;;;;;;3.85;0.88;;;;;;;32.54;17.60;100420.97;143726;565;47010;-82
2021/05/18 13:43:05;;;;;;;23.08;1.42;;;;;;;32.58;17.76;100417.88;143724;653;46024;-80
2021/05/18 13:45:32;;;;;;;4.40;0.88;;;;;;;32.56;17.50;100413.47;143727;565;47008;-84
2021/05/18 13:47:59;;;;;;;6.78;1.00;;;;;;;32.58;17.45;100415.16;143726;631;46010;-84
2021/05/18 13:50:27;;;;;;;4.53;0.90;;;;;;;32.40;17.96;100411.00;143729;578;46020;-86
2021/05/18 13:52:58;;;;;;;4.20;0.98;;;;;;;32.16;17.84;100413.03;143720;606;47018;-86
2021/05/18 13:55:26;;;;;;;9.27;1.55;;;;;;;31.95;18.07;100410.28;143725;621;46033;-88
2021/05/18 13:57:55;;;;;;;6.40;1.23;;;;;;;31.78;18.40;100413.22;143725;611;46018;-86
2021/05/18 14:00:22;;;;;;;5.30;1.08;;;;;;;31.80;18.66;100413.87;143728;642;46029;-85
2021/05/18 14:02:50;;;;;;;3.55;1.10;;;;;;;31.87;18.68;100412.06;143726;589;46016;-86
2021/05/18 14:05:24;;;;;;;6.00;1.12;;;;;;;31.82;18.72;100410.97;143727;648;46020;-87
2021/05/18 14:08:23;;;;;;;5.12;1.33;;;;;;;31.78;18.59;100420.50;143730;605;46010;-84
2021/05/18 14:11:10;;;;;;;5.75;1.02;;;;;;;31.79;18.60;100423.03;143730;563;46010;-85
2021/05/18 14:13:43;;;;;;;3.97;1.00;;;;;;;31.93;19.17;100424.03;143724;563;46016;-87
2021/05/18 14:16:15;;;;;;;6.03;1.10;;;;;;;31.94;18.75;100400.47;143726;625;47008;-89
2021/05/18 14:18:43;;;;;;;7.90;1.10;;;;;;;32.05;18.59;100410.81;143718;563;47008;-85
2021/05/18 14:21:10;;;;;;;4.30;0.90;;;;;;;32.01;18.55;100410.37;143727;599;47008;-84
2021/05/18 14:26:33;;;;;;;4.72;0.80;;;;;;;31.85;19.07;100419.56;143730;599;46020;-85
2021/05/18 14:29:00;;;;;;;6.12;1.05;;;;;;;31.89;19.13;100415.44;143728;570;46018;-84
2021/05/18 14:31:27;;;;;;;9.40;0.82;;;;;;;31.91;18.93;100420.69;143727;595;47010;-84
2021/05/18 14:33:54;;;;;;;3.95;1.05;;;;;;;31.88;18.90;100421.91;143725;564;47012;-82
2021/05/18 14:36:22;;;;;;;4.45;0.90;;;;;;;31.84;18.90;100431.44;143730;587;47010;-84
2021/05/18 14:38:52;;;;;;;6.15;1.40;;;;;;;31.82;19.02;100432.66;143735;593;46011;-84
2021/05/18 14:47:02;;;;;;;8.98;0.90;;;;;;;31.81;19.40;100431.84;143725;572;47020;-85
2021/05/18 14:55:19;;;;;;;2.75;0.88;;;;;;;31.79;19.24;100439.31;143730;614;46017;-85
2021/05/18 14:57:46;;;;;;;5.12;1.10;;;;;;;31.77;19.47;100437.81;143732;584;46020;-85
2021/05/18 15:00:14;;;;;;;8.27;1.65;;;;;;;31.72;19.65;100431.09;143732;651;46018;-84
2021/05/18 15:02:42;;;;;;;5.32;1.00;;;;;;;31.76;19.87;100441.59;143726;635;47008;-84
2021/05/18 15:05:11;;;;;;;2.35;0.80;;;;;;;31.77;19.54;100438.69;143729;659;47018;-84
2021/05/18 15:07:41;;;;;;;3.72;1.00;;;;;;;31.77;19.09;100438.69;143731;595;47010;-83
2021/05/18 15:10:09;;;;;;;4.68;1.00;;;;;;;31.76;19.57;100439.69;143727;574;46018;-84
2021/05/18 15:12:36;;;;;;;4.55;1.15;;;;;;;31.73;19.24;100445.50;143730;612;46018;-85
2021/05/18 15:15:04;;;;;;;5.97;1.00;;;;;;;31.69;19.70;100444.19;143729;564;46012;-84
2021/05/18 15:17:31;;;;;;;3.75;1.25;;;;;;;31.65;19.50;100448.31;143730;619;46021;-85
2021/05/18 15:19:59;;;;;;;2.60;0.90;;;;;;;31.62;19.66;100440.53;143731;604;46010;-85
2021/05/18 15:22:28;;;;;;;2.55;0.82;;;;;;;31.53;19.49;100443.31;143732;567;46022;-85
2021/05/18 15:24:56;;;;;;;3.85;0.90;;;;;;;31.45;19.59;100437.16;143729;600;47012;-84
2021/05/18 15:27:25;;;;;;;2.35;0.90;;;;;;;31.41;19.67;100436.69;143730;565;47012;-84
2021/05/18 15:29:53;;;;;;;4.30;1.48;;;;;;;31.39;19.60;100433.31;143729;645;47010;-85
2021/05/18 15:32:21;;;;;;;6.62;1.05;;;;;;;31.36;19.98;100439.12;143732;625;46010;-85
2021/05/18 15:34:48;;;;;;;3.33;0.80;;;;;;;31.29;20.36;100443.59;143730;631;46016;-85
2021/05/18 15:37:18;;;;;;;5.50;1.00;;;;;;;31.26;20.07;100446.69;143724;564;47011;-85
2021/05/18 15:39:45;;;;;;;5.75;2.15;;;;;;;31.22;20.32;100443.47;143728;585;46018;-84
2021/05/18 15:42:12;;;;;;;4.72;1.12;;;;;;;31.20;20.42;100442.84;143723;610;48008;-85
2021/05/18 15:44:40;;;;;;;4.97;0.90;;;;;;;31.15;20.17;100438.00;143725;674;47018;-84
2021/05/18 15:47:07;;;;;;;5.75;1.23;;;;;;;31.18;20.34;100444.88;143725;612;47010;-85
2021/05/18 15:49:34;;;;;;;4.57;1.45;;;;;;;31.09;19.98;100440.59;143723;585;46018;-85
2021/05/18 15:52:03;;;;;;;5.90;1.10;;;;;;;31.03;20.31;100437.59;143727;608;47008;-85
2021/05/18 15:54:31;;;;;;;5.68;0.93;;;;;;;30.99;20.31;100432.66;143722;569;47019;-85
2021/05/18 15:57:00;;;;;;;3.75;1.00;;;;;;;30.98;20.57;100431.84;143723;591;46020;-85
2021/05/18 15:59:27;;;;;;;4.15;1.20;;;;;;;30.91;20.26;100430.88;143720;586;46012;-85
2021/05/18 16:01:55;;;;;;;5.50;1.00;;;;;;;30.85;19.93;100443.31;143726;566;46012;-85
2021/05/18 16:04:23;;;;;;;5.10;1.00;;;;;;;30.80;20.38;100442.19;143723;591;47012;-85
2021/05/18 16:06:53;;;;;;;5.50;1.12;;;;;;;30.80;20.04;100444.88;143723;615;46021;-84
2021/05/18 16:09:20;;;;;;;7.05;1.10;;;;;;;30.68;20.07;100431.75;143723;566;47010;-85
2021/05/18 16:11:47;;;;;;;5.32;1.05;;;;;;;30.70;20.29;100445.97;143726;594;46010;-85
2021/05/18 16:14:15;;;;;;;4.00;0.90;;;;;;;30.68;20.13;100452.59;143721;578;46907;-85
2021/05/18 16:16:42;;;;;;;6.65;1.00;;;;;;;30.67;20.30;100451.75;143727;566;46010;-85
2021/05/18 16:19:09;;;;;;;4.82;1.00;;;;;;;30.63;19.58;100455.00;143723;581;47012;-85
2021/05/18 16:21:36;;;;;;;2.75;1.00;;;;;;;30.60;19.98;100449.94;143726;625;46022;-85
2021/05/18 16:24:04;;;;;;;3.20;0.82;;;;;;;30.55;20.18;100447.75;143719;645;47019;-85